KGGW/GGW METAR and TAF weather

Enter ICAO airport designator
Station Type Date Time Source
KGGW METAR 2020/09/22 16:53 UTC NOAA

KGGW 221653Z AUTO 18005KT 10SM CLR 19/07 A2997 RMK AO2 SLP147 T01940072


Station Type Date Time Source
KGGW Decoded METAR 2020/09/22 16:53 UTC NOAA

GLASGOW INTERNATIONAL AIRPORT , MT, United States (KGGW) 48-13N 106-37W 693M
Sep 22, 2020 - 12:53 PM EDT / 2020.09.22 1653 UTC
Wind: from the S (180 degrees) at 6 MPH (5 KT):0
Visibility: 10 mile(s):0
Sky conditions: clear
Temperature: 66.9 F (19.4 C)
Dew Point: 45.0 F (7.2 C)
Relative Humidity: 45%
Pressure (altimeter): 29.97 in. Hg (1014 hPa)
ob: KGGW 221653Z AUTO 18005KT 10SM CLR 19/07 A2997 RMK AO2 SLP147 T01940072
cycle: 17

Station Type Date Time Source
KGGW TAF 2020/09/22 18:22 UTC NOAA

TAF KGGW 221720Z 2218/2318 VRB05KT P6SM SKC
FM230300 03013KT P6SM BKN120
FM231000 05007KT P6SM FEW100

Example: see airport list